Time;durP1;ratioP1;P1;durP2;ratioP2;P2;SDS_P1;SDS_P2;PMS_P1;PMS_P2;Temp;Humidity;BMP_temperature;BMP_pressure;BME280_temperature;BME280_humidity;BME280_pressure;Samples;Min_cycle;Max_cycle;Signal;HPM_P1;HPM_P2
2023/12/10 00:01:49;;;;;;;26.13;5.87;;;;;;;;;;5016177;28;20392;-67
2023/12/10 00:04:15;;;;;;;26.17;6.10;;;;;;;;;;5010105;28;20446;-67
2023/12/10 00:06:40;;;;;;;25.30;5.73;;;;;;;;;;5010208;28;20467;-67
2023/12/10 00:09:05;;;;;;;23.40;4.90;;;;;;;;;;5009921;28;20424;-67
2023/12/10 00:11:31;;;;;;;23.03;5.20;;;;;;;;;;5010541;28;20400;-67
2023/12/10 00:13:56;;;;;;;22.77;5.25;;;;;;;;;;5009935;28;20408;-67
2023/12/10 00:16:21;;;;;;;22.63;4.47;;;;;;;;;;5010087;28;20389;-67
2023/12/10 00:18:47;;;;;;;24.13;4.93;;;;;;;;;;5009783;28;20967;-67
2023/12/10 00:21:13;;;;;;;27.00;4.83;;;;;;;;;;5009905;28;20423;-67
2023/12/10 00:23:38;;;;;;;22.15;4.85;;;;;;;;;;5010525;28;20388;-67
2023/12/10 00:26:03;;;;;;;25.67;5.53;;;;;;;;;;5009621;28;20408;-67
2023/12/10 00:28:29;;;;;;;20.52;4.60;;;;;;;;;;5009494;28;20401;-67
2023/12/10 00:30:54;;;;;;;26.63;5.47;;;;;;;;;;5010330;28;20486;-67
2023/12/10 00:33:19;;;;;;;23.00;5.30;;;;;;;;;;5009344;28;20491;-67
2023/12/10 00:35:45;;;;;;;25.40;5.60;;;;;;;;;;5010109;28;20409;-67
2023/12/10 00:38:10;;;;;;;23.38;4.68;;;;;;;;;;5009560;28;20420;-67
2023/12/10 00:40:36;;;;;;;25.97;5.03;;;;;;;;;;5009618;28;20400;-68
2023/12/10 00:43:01;;;;;;;26.53;5.80;;;;;;;;;;5009616;28;21061;-66
2023/12/10 00:45:26;;;;;;;24.50;5.20;;;;;;;;;;5010136;28;20469;-68
2023/12/10 00:47:52;;;;;;;25.77;5.20;;;;;;;;;;5004819;28;20408;-69
2023/12/10 00:50:18;;;;;;;24.93;5.40;;;;;;;;;;5009399;28;20452;-68
2023/12/10 00:52:43;;;;;;;26.08;5.28;;;;;;;;;;5009767;28;20404;-69
2023/12/10 00:55:10;;;;;;;28.57;6.10;;;;;;;;;;5008939;28;20408;-69
2023/12/10 00:57:35;;;;;;;28.42;7.30;;;;;;;;;;5023580;28;20729;-70
2023/12/10 01:00:00;;;;;;;28.53;6.20;;;;;;;;;;5029761;28;20457;-70
2023/12/10 01:02:26;;;;;;;25.80;6.30;;;;;;;;;;5009741;28;20942;-70
2023/12/10 01:04:51;;;;;;;26.33;5.73;;;;;;;;;;5009487;28;20397;-70
2023/12/10 01:07:17;;;;;;;26.15;5.70;;;;;;;;;;5009359;28;20896;-70
2023/12/10 01:09:42;;;;;;;27.67;5.87;;;;;;;;;;5010935;28;20919;-70
2023/12/10 01:12:07;;;;;;;26.30;6.15;;;;;;;;;;5012878;28;20423;-69
2023/12/10 01:14:33;;;;;;;23.90;5.77;;;;;;;;;;5013817;28;20396;-70
2023/12/10 01:16:59;;;;;;;26.33;5.20;;;;;;;;;;5013379;28;20768;-70
2023/12/10 01:19:24;;;;;;;29.45;4.95;;;;;;;;;;5012932;28;20399;-70
2023/12/10 01:21:50;;;;;;;24.47;4.70;;;;;;;;;;5013788;28;20483;-70
2023/12/10 01:24:17;;;;;;;24.23;4.83;;;;;;;;;;5012527;28;20396;-70
2023/12/10 01:26:43;;;;;;;24.35;5.88;;;;;;;;;;5013537;28;20470;-70
2023/12/10 01:29:08;;;;;;;26.17;4.87;;;;;;;;;;5011932;28;20397;-70
2023/12/10 01:31:34;;;;;;;21.53;5.40;;;;;;;;;;5013286;28;20756;-70
2023/12/10 01:33:59;;;;;;;22.73;5.03;;;;;;;;;;5013710;28;20426;-70
2023/12/10 01:36:24;;;;;;;24.43;5.37;;;;;;;;;;5012607;28;20463;-70
2023/12/10 01:38:50;;;;;;;23.37;4.80;;;;;;;;;;5013083;28;20422;-70
2023/12/10 01:41:16;;;;;;;25.20;5.00;;;;;;;;;;5012889;28;20432;-70
2023/12/10 01:43:42;;;;;;;27.98;5.03;;;;;;;;;;5012763;28;20462;-70
2023/12/10 01:46:08;;;;;;;25.45;5.40;;;;;;;;;;5012581;28;20393;-69
2023/12/10 01:48:33;;;;;;;20.45;4.18;;;;;;;;;;5008686;28;20400;-70
2023/12/10 01:50:59;;;;;;;25.67;4.90;;;;;;;;;;5011212;28;20828;-70
2023/12/10 01:53:24;;;;;;;24.70;4.80;;;;;;;;;;5010914;28;20409;-70
2023/12/10 01:55:50;;;;;;;21.25;4.85;;;;;;;;;;5013175;28;20401;-70
2023/12/10 01:58:15;;;;;;;22.57;4.20;;;;;;;;;;5031594;28;20476;-70
2023/12/10 02:00:40;;;;;;;23.40;4.50;;;;;;;;;;5027993;28;20507;-70
2023/12/10 02:03:06;;;;;;;20.20;4.63;;;;;;;;;;5012577;28;20423;-70
2023/12/10 02:05:31;;;;;;;21.63;4.53;;;;;;;;;;5012266;28;20455;-70
2023/12/10 02:07:57;;;;;;;22.23;4.50;;;;;;;;;;5012375;28;20405;-71
2023/12/10 02:10:22;;;;;;;22.58;3.78;;;;;;;;;;5012122;28;20417;-71
2023/12/10 02:12:47;;;;;;;20.90;4.17;;;;;;;;;;5012293;28;20393;-71
2023/12/10 02:15:16;;;;;;;22.10;4.80;;;;;;;;;;5012014;28;20507;-71
2023/12/10 02:17:42;;;;;;;18.90;3.92;;;;;;;;;;5012650;28;20392;-70
2023/12/10 02:20:09;;;;;;;23.20;4.03;;;;;;;;;;5011565;28;20954;-70
2023/12/10 02:22:34;;;;;;;21.48;4.25;;;;;;;;;;5012254;28;20397;-70
2023/12/10 02:25:01;;;;;;;19.37;3.73;;;;;;;;;;5011175;28;20388;-70
2023/12/10 02:27:26;;;;;;;20.83;3.90;;;;;;;;;;5011605;28;20401;-70
2023/12/10 02:29:52;;;;;;;18.47;3.97;;;;;;;;;;5012337;28;20401;-70
2023/12/10 02:32:17;;;;;;;20.60;4.50;;;;;;;;;;5011508;28;20764;-70
2023/12/10 02:34:43;;;;;;;21.00;4.03;;;;;;;;;;5012287;28;20429;-70
2023/12/10 02:37:08;;;;;;;21.27;4.03;;;;;;;;;;5011706;28;20401;-71
2023/12/10 02:39:33;;;;;;;22.47;4.00;;;;;;;;;;5011440;28;20395;-71
2023/12/10 02:41:59;;;;;;;20.23;4.27;;;;;;;;;;5012078;28;20483;-71
2023/12/10 02:44:24;;;;;;;22.10;4.37;;;;;;;;;;5011816;28;20752;-71
2023/12/10 02:46:49;;;;;;;21.53;4.20;;;;;;;;;;5010387;28;21104;-71
2023/12/10 02:49:15;;;;;;;18.67;3.97;;;;;;;;;;5006944;28;20412;-71
2023/12/10 02:51:40;;;;;;;19.20;4.00;;;;;;;;;;5012073;28;20417;-71
2023/12/10 02:54:05;;;;;;;22.30;4.57;;;;;;;;;;5010916;28;20483;-72
2023/12/10 02:56:31;;;;;;;19.63;3.70;;;;;;;;;;5017023;28;20422;-72
2023/12/10 02:58:56;;;;;;;25.67;4.87;;;;;;;;;;5031731;28;20427;-73
2023/12/10 03:01:21;;;;;;;22.70;4.07;;;;;;;;;;5020368;28;20442;-72
2023/12/10 03:03:47;;;;;;;22.90;4.63;;;;;;;;;;5011592;28;20405;-72
2023/12/10 03:06:12;;;;;;;20.20;4.10;;;;;;;;;;5011478;28;20409;-71
2023/12/10 03:08:37;;;;;;;22.53;4.30;;;;;;;;;;5010766;28;20464;-72
2023/12/10 03:11:03;;;;;;;22.38;4.22;;;;;;;;;;5011014;28;20421;-71
2023/12/10 03:13:28;;;;;;;20.53;4.37;;;;;;;;;;5011838;28;20397;-72
2023/12/10 03:15:54;;;;;;;20.60;4.20;;;;;;;;;;5011085;28;20389;-72
2023/12/10 03:18:19;;;;;;;23.87;4.30;;;;;;;;;;5010773;28;20405;-72
2023/12/10 03:20:44;;;;;;;20.90;3.73;;;;;;;;;;5011538;28;20803;-72
2023/12/10 03:23:10;;;;;;;21.43;3.80;;;;;;;;;;5010313;28;21009;-72
2023/12/10 03:25:35;;;;;;;24.07;4.50;;;;;;;;;;5011289;28;20400;-72
2023/12/10 03:28:00;;;;;;;21.23;4.23;;;;;;;;;;5010835;28;20432;-69
2023/12/10 03:30:26;;;;;;;23.13;4.20;;;;;;;;;;5010560;28;20748;-73
2023/12/10 03:32:51;;;;;;;22.00;4.63;;;;;;;;;;5010659;28;20436;-73
2023/12/10 03:35:16;;;;;;;24.57;4.97;;;;;;;;;;5010957;28;20401;-73
2023/12/10 03:37:42;;;;;;;20.97;4.10;;;;;;;;;;5010411;28;21051;-73
2023/12/10 03:40:07;;;;;;;25.10;4.55;;;;;;;;;;5010748;28;20730;-72
2023/12/10 03:42:33;;;;;;;24.07;4.63;;;;;;;;;;5011105;28;20405;-73
2023/12/10 03:44:58;;;;;;;24.00;5.07;;;;;;;;;;5010307;28;20908;-73
2023/12/10 03:47:23;;;;;;;22.80;4.47;;;;;;;;;;5010610;28;20483;-73
2023/12/10 03:49:49;;;;;;;24.50;4.67;;;;;;;;;;5006080;28;20405;-72
2023/12/10 03:52:14;;;;;;;24.30;4.47;;;;;;;;;;5009708;28;20619;-72
2023/12/10 03:54:39;;;;;;;24.80;4.55;;;;;;;;;;5009649;28;20439;-72
2023/12/10 03:57:05;;;;;;;26.67;5.00;;;;;;;;;;5010147;28;20535;-73
2023/12/10 03:59:30;;;;;;;25.57;4.60;;;;;;;;;;5010758;28;20408;-73
2023/12/10 04:01:56;;;;;;;21.23;4.50;;;;;;;;;;5010508;28;20446;-73
2023/12/10 04:04:21;;;;;;;25.83;4.67;;;;;;;;;;5009952;28;20438;-73
2023/12/10 04:06:47;;;;;;;20.77;4.20;;;;;;;;;;5010494;28;20507;-73
2023/12/10 04:09:12;;;;;;;25.88;4.40;;;;;;;;;;5009829;28;20421;-74
2023/12/10 04:11:38;;;;;;;25.63;4.60;;;;;;;;;;5010102;28;20475;-73
2023/12/10 04:14:06;;;;;;;24.25;5.15;;;;;;;;;;5009719;28;20409;-72
2023/12/10 04:16:32;;;;;;;23.40;4.57;;;;;;;;;;5010205;28;20550;-73
2023/12/10 04:18:57;;;;;;;26.90;5.30;;;;;;;;;;5009698;28;20472;-73
2023/12/10 04:21:23;;;;;;;21.77;4.57;;;;;;;;;;5008525;28;20391;-73
2023/12/10 04:23:48;;;;;;;25.80;5.07;;;;;;;;;;5009542;28;20417;-73
2023/12/10 04:26:14;;;;;;;25.45;4.93;;;;;;;;;;5008571;28;20456;-72
2023/12/10 04:28:39;;;;;;;27.40;5.50;;;;;;;;;;5009661;28;20899;-72
2023/12/10 04:31:05;;;;;;;25.73;5.40;;;;;;;;;;5009808;28;20405;-72
2023/12/10 04:33:30;;;;;;;24.83;5.20;;;;;;;;;;5009920;28;20407;-72
2023/12/10 04:35:55;;;;;;;20.27;4.70;;;;;;;;;;5009973;28;20400;-72
2023/12/10 04:38:21;;;;;;;22.50;5.10;;;;;;;;;;5009431;28;20377;-72
2023/12/10 04:40:46;;;;;;;21.33;4.28;;;;;;;;;;5009605;28;20403;-71
2023/12/10 04:43:11;;;;;;;24.27;4.83;;;;;;;;;;5009610;28;20448;-71
2023/12/10 04:45:37;;;;;;;24.40;5.23;;;;;;;;;;5010089;28;20452;-71
2023/12/10 04:48:02;;;;;;;23.07;4.80;;;;;;;;;;5004579;28;20413;-70
2023/12/10 04:50:27;;;;;;;24.88;6.03;;;;;;;;;;5010095;28;20757;-69
2023/12/10 04:52:53;;;;;;;24.53;5.53;;;;;;;;;;5009958;28;20448;-70
2023/12/10 04:55:18;;;;;;;25.33;4.60;;;;;;;;;;5008947;28;20397;-69
2023/12/10 04:57:43;;;;;;;26.00;4.70;;;;;;;;;;5009361;28;20440;-70
2023/12/10 05:00:09;;;;;;;23.50;4.30;;;;;;;;;;5008935;28;20408;-69
2023/12/10 05:02:34;;;;;;;25.20;4.27;;;;;;;;;;5009936;28;20391;-70
2023/12/10 05:05:00;;;;;;;20.65;4.75;;;;;;;;;;5009750;28;20934;-71
2023/12/10 05:07:25;;;;;;;24.93;4.70;;;;;;;;;;5016741;28;20760;-71
2023/12/10 05:09:50;;;;;;;21.77;4.67;;;;;;;;;;5006175;28;20764;-71
2023/12/10 05:12:16;;;;;;;26.50;4.73;;;;;;;;;;5008755;28;20413;-71
2023/12/10 05:14:41;;;;;;;24.08;4.20;;;;;;;;;;5009323;28;20409;-70
2023/12/10 05:17:07;;;;;;;23.07;4.93;;;;;;;;;;5009206;28;20401;-70
2023/12/10 05:19:32;;;;;;;23.93;4.40;;;;;;;;;;5009936;28;20384;-71
2023/12/10 05:21:57;;;;;;;23.90;4.68;;;;;;;;;;5009053;28;20466;-71
2023/12/10 05:24:23;;;;;;;21.10;4.50;;;;;;;;;;5008978;28;20397;-71
2023/12/10 05:26:48;;;;;;;22.50;4.60;;;;;;;;;;5009797;28;20408;-72
2023/12/10 05:29:13;;;;;;;21.97;4.53;;;;;;;;;;5008973;28;20401;-71
2023/12/10 05:31:39;;;;;;;21.93;4.80;;;;;;;;;;5009480;28;20412;-71
2023/12/10 05:34:04;;;;;;;23.20;4.65;;;;;;;;;;5009388;28;20405;-71
2023/12/10 05:36:29;;;;;;;22.53;4.63;;;;;;;;;;5008707;28;20385;-72
2023/12/10 05:38:55;;;;;;;23.00;4.63;;;;;;;;;;5009448;28;20405;-71
2023/12/10 05:41:20;;;;;;;24.73;4.73;;;;;;;;;;5009052;28;20393;-71
2023/12/10 05:43:45;;;;;;;20.40;3.90;;;;;;;;;;5008812;28;20469;-71
2023/12/10 05:46:11;;;;;;;20.97;4.83;;;;;;;;;;5009173;28;20462;-71
2023/12/10 05:48:36;;;;;;;22.07;3.77;;;;;;;;;;5005000;28;20396;-71
2023/12/10 05:51:03;;;;;;;20.60;4.03;;;;;;;;;;5008264;28;20420;-71
2023/12/10 05:53:28;;;;;;;21.77;4.13;;;;;;;;;;5009225;28;20405;-72
2023/12/10 05:55:54;;;;;;;21.65;3.92;;;;;;;;;;5011118;28;20401;-72
2023/12/10 05:58:19;;;;;;;21.77;4.00;;;;;;;;;;5013433;28;20429;-72
2023/12/10 06:00:44;;;;;;;20.37;3.87;;;;;;;;;;5027679;28;20403;-72
2023/12/10 06:03:10;;;;;;;25.52;4.35;;;;;;;;;;5012517;28;20919;-71
2023/12/10 06:05:35;;;;;;;21.40;4.30;;;;;;;;;;5012328;28;20412;-71
2023/12/10 06:08:01;;;;;;;22.93;4.27;;;;;;;;;;5012449;28;20423;-69
2023/12/10 06:10:26;;;;;;;22.58;4.40;;;;;;;;;;5011917;28;20432;-71
2023/12/10 06:12:51;;;;;;;20.47;4.67;;;;;;;;;;5012678;28;20397;-71
2023/12/10 06:15:17;;;;;;;24.13;4.73;;;;;;;;;;5012391;28;20409;-70
2023/12/10 06:17:42;;;;;;;20.13;4.40;;;;;;;;;;5012001;28;20440;-71
2023/12/10 06:20:08;;;;;;;22.10;4.35;;;;;;;;;;5012074;28;20408;-70
2023/12/10 06:22:33;;;;;;;23.47;4.60;;;;;;;;;;5012219;28;20410;-71
2023/12/10 06:24:58;;;;;;;20.90;4.00;;;;;;;;;;5012026;28;20407;-71
2023/12/10 06:27:24;;;;;;;22.93;4.17;;;;;;;;;;5011755;28;20468;-71
2023/12/10 06:29:49;;;;;;;24.00;4.33;;;;;;;;;;5012362;28;20413;-70
2023/12/10 06:32:15;;;;;;;19.63;3.78;;;;;;;;;;5011370;28;20412;-70
2023/12/10 06:34:40;;;;;;;22.63;4.50;;;;;;;;;;5012366;28;20898;-71
2023/12/10 06:37:06;;;;;;;20.73;4.67;;;;;;;;;;5011755;28;20432;-70
2023/12/10 06:39:31;;;;;;;21.13;4.00;;;;;;;;;;5011788;28;20898;-70
2023/12/10 06:41:56;;;;;;;20.50;4.50;;;;;;;;;;5012009;28;20895;-70
2023/12/10 06:44:22;;;;;;;20.20;3.90;;;;;;;;;;5011560;28;20879;-71
2023/12/10 06:46:48;;;;;;;23.33;4.30;;;;;;;;;;5011903;28;20895;-71
2023/12/10 06:49:13;;;;;;;23.97;4.20;;;;;;;;;;5008132;28;20415;-70
2023/12/10 06:51:39;;;;;;;23.70;4.13;;;;;;;;;;5031741;28;20903;-70
2023/12/10 06:54:04;;;;;;;20.13;5.13;;;;;;;;;;5021859;28;20409;-70
2023/12/10 06:56:29;;;;;;;24.23;5.27;;;;;;;;;;5016999;28;20471;-71
2023/12/10 06:58:55;;;;;;;21.38;4.30;;;;;;;;;;5031807;28;20751;-70
2023/12/10 07:01:20;;;;;;;25.17;6.17;;;;;;;;;;5020234;28;20407;-70
2023/12/10 07:03:46;;;;;;;24.50;6.27;;;;;;;;;;5011949;28;20397;-70
2023/12/10 07:06:11;;;;;;;16.23;3.95;;;;;;;;;;5010990;28;20504;-70
2023/12/10 07:08:36;;;;;;;20.77;4.00;;;;;;;;;;5010485;28;20495;-70
2023/12/10 07:11:04;;;;;;;22.07;4.73;;;;;;;;;;5011510;28;20503;-70
2023/12/10 07:13:30;;;;;;;23.00;5.28;;;;;;;;;;5011828;28;20429;-71
2023/12/10 07:15:55;;;;;;;23.50;5.80;;;;;;;;;;5011002;28;20922;-70
2023/12/10 07:18:20;;;;;;;20.87;3.90;;;;;;;;;;5011353;28;20482;-70
2023/12/10 07:20:46;;;;;;;24.57;5.67;;;;;;;;;;5010993;28;20768;-71
2023/12/10 07:23:11;;;;;;;22.27;5.23;;;;;;;;;;5010893;28;20436;-70
2023/12/10 07:25:36;;;;;;;25.03;6.03;;;;;;;;;;5011723;28;20429;-70
2023/12/10 07:28:02;;;;;;;27.50;6.53;;;;;;;;;;5010336;28;20896;-69
2023/12/10 07:30:29;;;;;;;25.42;5.07;;;;;;;;;;5011139;28;20463;-71
2023/12/10 07:32:56;;;;;;;26.05;5.60;;;;;;;;;;5011599;28;20393;-70
2023/12/10 07:35:22;;;;;;;24.55;4.70;;;;;;;;;;5010275;28;20754;-70
2023/12/10 07:37:47;;;;;;;22.35;5.50;;;;;;;;;;5011227;28;20397;-70
2023/12/10 07:40:13;;;;;;;21.60;5.30;;;;;;;;;;5010887;28;20488;-70
2023/12/10 07:42:38;;;;;;;21.70;4.53;;;;;;;;;;5010601;28;20456;-69
2023/12/10 07:45:04;;;;;;;19.98;4.15;;;;;;;;;;5010272;28;20412;-70
2023/12/10 07:47:29;;;;;;;19.92;4.20;;;;;;;;;;5011005;28;20396;-70
2023/12/10 07:49:55;;;;;;;22.80;4.73;;;;;;;;;;5005956;28;20412;-71
2023/12/10 07:52:20;;;;;;;23.27;5.03;;;;;;;;;;5000968;28;20438;-70
2023/12/10 07:54:45;;;;;;;21.27;4.77;;;;;;;;;;4981571;28;20387;-67
2023/12/10 07:57:11;;;;;;;24.65;5.75;;;;;;;;;;4975034;28;20945;-67
2023/12/10 07:59:36;;;;;;;23.43;4.13;;;;;;;;;;4979994;28;20529;-67
2023/12/10 08:02:01;;;;;;;24.27;4.53;;;;;;;;;;4985194;28;20406;-67
2023/12/10 08:04:27;;;;;;;22.50;4.07;;;;;;;;;;4985370;28;20386;-67
2023/12/10 08:06:52;;;;;;;22.43;4.60;;;;;;;;;;4983738;28;20402;-67
2023/12/10 08:09:17;;;;;;;16.73;3.90;;;;;;;;;;4985195;28;20418;-67
2023/12/10 08:11:43;;;;;;;16.47;3.63;;;;;;;;;;4982816;28;20465;-67
2023/12/10 08:14:09;;;;;;;20.87;5.67;;;;;;;;;;5002430;28;20393;-67
2023/12/10 08:16:34;;;;;;;20.05;4.57;;;;;;;;;;4983076;28;20566;-67
2023/12/10 08:19:00;;;;;;;21.30;5.53;;;;;;;;;;4975364;28;20517;-67
2023/12/10 08:21:25;;;;;;;19.13;4.40;;;;;;;;;;4990932;28;20395;-68
2023/12/10 08:23:51;;;;;;;19.93;3.70;;;;;;;;;;4983639;28;20401;-67
2023/12/10 08:26:16;;;;;;;20.83;4.25;;;;;;;;;;4986775;28;20493;-66
2023/12/10 08:28:41;;;;;;;20.40;3.70;;;;;;;;;;4986844;28;20442;-67
2023/12/10 08:31:07;;;;;;;21.00;4.40;;;;;;;;;;4982859;28;20452;-66
2023/12/10 08:33:32;;;;;;;23.33;4.47;;;;;;;;;;4982851;28;20403;-67
2023/12/10 08:35:58;;;;;;;22.45;3.92;;;;;;;;;;4990910;28;20412;-66
2023/12/10 08:38:23;;;;;;;19.37;4.10;;;;;;;;;;5008867;28;20396;-65
2023/12/10 08:40:48;;;;;;;17.50;4.23;;;;;;;;;;5009812;28;20397;-67
2023/12/10 08:43:14;;;;;;;21.53;3.97;;;;;;;;;;5009613;28;20409;-68
2023/12/10 08:45:39;;;;;;;19.10;3.67;;;;;;;;;;5009392;28;20461;-67
2023/12/10 08:48:04;;;;;;;20.23;4.37;;;;;;;;;;5004314;28;20408;-66
2023/12/10 08:50:30;;;;;;;21.37;4.50;;;;;;;;;;5009652;28;20400;-67
2023/12/10 08:52:55;;;;;;;17.98;3.63;;;;;;;;;;5009083;28;20408;-66
2023/12/10 08:55:20;;;;;;;21.23;4.10;;;;;;;;;;5008644;28;20396;-66
2023/12/10 08:57:46;;;;;;;19.67;4.30;;;;;;;;;;5011264;28;20532;-67
2023/12/10 09:00:12;;;;;;;24.97;4.67;;;;;;;;;;5005804;28;20445;-67
2023/12/10 09:02:37;;;;;;;24.10;4.80;;;;;;;;;;5009522;28;20389;-67
2023/12/10 09:05:02;;;;;;;18.07;4.07;;;;;;;;;;5009335;28;20416;-66
2023/12/10 09:07:29;;;;;;;22.43;4.57;;;;;;;;;;5008361;28;20730;-66
2023/12/10 09:09:59;;;;;;;19.85;3.92;;;;;;;;;;4998394;28;20427;-66
2023/12/10 09:12:24;;;;;;;19.55;4.25;;;;;;;;;;5008956;28;20401;-66
2023/12/10 09:14:50;;;;;;;18.53;4.47;;;;;;;;;;5008788;28;20749;-67
2023/12/10 09:17:15;;;;;;;21.80;4.13;;;;;;;;;;5006208;28;20967;-67
2023/12/10 09:19:40;;;;;;;19.50;4.23;;;;;;;;;;5009018;28;20401;-67
2023/12/10 09:22:06;;;;;;;20.20;4.30;;;;;;;;;;5008278;28;20417;-66
2023/12/10 09:24:32;;;;;;;20.23;3.60;;;;;;;;;;5006497;28;20407;-67
2023/12/10 09:26:58;;;;;;;20.33;3.65;;;;;;;;;;5009387;28;20400;-67
2023/12/10 09:29:23;;;;;;;18.38;3.55;;;;;;;;;;5008118;28;20649;-67
2023/12/10 09:31:48;;;;;;;17.60;4.13;;;;;;;;;;5012541;28;20471;-67
2023/12/10 09:34:14;;;;;;;21.87;4.00;;;;;;;;;;5012610;28;20744;-66
2023/12/10 09:36:39;;;;;;;17.98;3.65;;;;;;;;;;5012120;28;20487;-67
2023/12/10 09:39:04;;;;;;;18.33;4.10;;;;;;;;;;5012203;28;20401;-67
2023/12/10 09:41:30;;;;;;;19.20;3.93;;;;;;;;;;5011871;28;20447;-67
2023/12/10 09:43:55;;;;;;;16.30;3.40;;;;;;;;;;5012528;28;20407;-67
2023/12/10 09:46:21;;;;;;;18.37;3.67;;;;;;;;;;5012288;28;20412;-67
2023/12/10 09:48:46;;;;;;;20.20;3.77;;;;;;;;;;5007187;28;20456;-67
2023/12/10 09:51:12;;;;;;;16.38;3.97;;;;;;;;;;5012201;28;20459;-67
2023/12/10 09:53:38;;;;;;;18.80;3.67;;;;;;;;;;5012758;28;20415;-67
2023/12/10 09:56:03;;;;;;;18.08;3.95;;;;;;;;;;5012941;28;20974;-67
2023/12/10 09:58:28;;;;;;;18.47;3.83;;;;;;;;;;5012736;28;20400;-67
2023/12/10 10:00:54;;;;;;;19.07;3.63;;;;;;;;;;5009624;28;20958;-67
2023/12/10 10:03:20;;;;;;;20.63;3.85;;;;;;;;;;5008585;28;20633;-67
2023/12/10 10:05:45;;;;;;;18.25;4.00;;;;;;;;;;5011059;28;20439;-67
2023/12/10 10:08:11;;;;;;;21.57;4.13;;;;;;;;;;4998242;28;20408;-67
2023/12/10 10:10:36;;;;;;;18.33;3.67;;;;;;;;;;4981032;28;20417;-67
2023/12/10 10:13:05;;;;;;;18.77;4.20;;;;;;;;;;4975486;28;20415;-67
2023/12/10 10:15:30;;;;;;;15.75;3.90;;;;;;;;;;4984365;28;20962;-67
2023/12/10 10:17:56;;;;;;;19.33;3.70;;;;;;;;;;4985386;28;20845;-68
2023/12/10 10:20:22;;;;;;;20.33;4.37;;;;;;;;;;4983181;28;20453;-68
2023/12/10 10:22:48;;;;;;;20.08;3.88;;;;;;;;;;4986905;28;20968;-67
2023/12/10 10:25:14;;;;;;;17.33;3.20;;;;;;;;;;4984696;28;20399;-67
2023/12/10 10:27:39;;;;;;;15.43;3.00;;;;;;;;;;4988835;28;20684;-67
2023/12/10 10:30:05;;;;;;;16.63;3.17;;;;;;;;;;5006581;28;20399;-67
2023/12/10 10:32:30;;;;;;;19.73;3.20;;;;;;;;;;4990813;28;20431;-68
2023/12/10 10:34:56;;;;;;;17.17;3.20;;;;;;;;;;4975548;28;20786;-68
2023/12/10 10:37:21;;;;;;;17.83;3.10;;;;;;;;;;4978704;28;20412;-68
2023/12/10 10:39:49;;;;;;;14.67;3.23;;;;;;;;;;4983109;28;20413;-68
2023/12/10 10:42:15;;;;;;;17.90;3.30;;;;;;;;;;4988930;28;20506;-68
2023/12/10 10:44:41;;;;;;;19.00;3.50;;;;;;;;;;4985342;28;20471;-68
2023/12/10 10:47:07;;;;;;;19.00;3.70;;;;;;;;;;4987068;28;20406;-67
2023/12/10 10:49:33;;;;;;;19.90;3.70;;;;;;;;;;4984505;28;20434;-68
2023/12/10 10:52:00;;;;;;;20.25;3.80;;;;;;;;;;4987181;28;20519;-68
2023/12/10 10:54:25;;;;;;;19.10;3.85;;;;;;;;;;4988269;28;20933;-67
2023/12/10 10:56:51;;;;;;;19.70;3.67;;;;;;;;;;4980893;28;20397;-67
2023/12/10 10:59:28;;;;;;;16.95;3.88;;;;;;;;;;4980691;28;20403;-67
2023/12/10 11:01:53;;;;;;;18.63;3.83;;;;;;;;;;4981964;28;20839;-67
2023/12/10 11:04:20;;;;;;;19.77;4.10;;;;;;;;;;4988991;28;20479;-67
2023/12/10 11:06:46;;;;;;;21.07;3.77;;;;;;;;;;4986893;28;20402;-67
2023/12/10 11:09:11;;;;;;;22.23;4.07;;;;;;;;;;4987607;28;20414;-67
2023/12/10 11:11:39;;;;;;;19.37;3.57;;;;;;;;;;4988949;28;20471;-67
2023/12/10 11:14:08;;;;;;;21.90;5.38;;;;;;;;;;4987652;28;20402;-67
2023/12/10 11:16:33;;;;;;;15.95;3.92;;;;;;;;;;4985575;28;20408;-67
2023/12/10 11:18:59;;;;;;;20.97;4.03;;;;;;;;;;4985885;28;20902;-67
2023/12/10 11:21:24;;;;;;;20.10;3.80;;;;;;;;;;4985423;28;20394;-68
2023/12/10 11:23:50;;;;;;;17.57;3.70;;;;;;;;;;4985917;28;20934;-69
2023/12/10 11:26:15;;;;;;;22.08;3.95;;;;;;;;;;4985322;28;20441;-68
2023/12/10 11:28:41;;;;;;;17.53;3.80;;;;;;;;;;4985299;28;20398;-67
2023/12/10 11:31:06;;;;;;;18.53;3.50;;;;;;;;;;4985850;28;20972;-66
2023/12/10 11:33:32;;;;;;;21.10;5.25;;;;;;;;;;4985792;28;20905;-66
2023/12/10 11:35:57;;;;;;;16.67;3.53;;;;;;;;;;4985554;28;20407;-66
2023/12/10 11:38:23;;;;;;;27.23;7.00;;;;;;;;;;4985013;28;21025;-66
2023/12/10 11:40:48;;;;;;;20.45;4.40;;;;;;;;;;4985324;28;20418;-69
2023/12/10 11:43:14;;;;;;;20.33;4.70;;;;;;;;;;4983462;28;20987;-67
2023/12/10 11:45:39;;;;;;;15.70;3.93;;;;;;;;;;4985985;28;20401;-68
2023/12/10 11:48:05;;;;;;;18.48;4.57;;;;;;;;;;4980588;28;20402;-68
2023/12/10 11:50:31;;;;;;;20.17;4.00;;;;;;;;;;4984166;28;20418;-67
2023/12/10 11:52:57;;;;;;;18.52;3.83;;;;;;;;;;4997594;28;20480;-67
2023/12/10 11:55:22;;;;;;;20.23;4.07;;;;;;;;;;4996604;28;20391;-67
2023/12/10 11:57:47;;;;;;;16.23;3.87;;;;;;;;;;4984888;28;20420;-68
2023/12/10 12:00:13;;;;;;;16.80;3.33;;;;;;;;;;4985393;28;20486;-66
2023/12/10 12:02:42;;;;;;;18.95;4.20;;;;;;;;;;4983787;28;20473;-67
2023/12/10 12:05:09;;;;;;;21.98;4.00;;;;;;;;;;4984987;28;20405;-66
2023/12/10 12:07:34;;;;;;;18.77;3.83;;;;;;;;;;4985516;28;20441;-67
2023/12/10 12:10:00;;;;;;;19.93;4.20;;;;;;;;;;4982619;28;20450;-67
2023/12/10 12:12:25;;;;;;;18.63;3.93;;;;;;;;;;4977069;28;20503;-70
2023/12/10 12:14:51;;;;;;;19.13;3.87;;;;;;;;;;4985657;28;20438;-69
2023/12/10 12:17:17;;;;;;;19.92;3.70;;;;;;;;;;4983893;28;20460;-70
2023/12/10 12:19:43;;;;;;;17.52;3.25;;;;;;;;;;4983698;28;20414;-69
2023/12/10 12:22:08;;;;;;;17.97;3.47;;;;;;;;;;4985387;28;20407;-69
2023/12/10 12:24:34;;;;;;;19.20;3.70;;;;;;;;;;4984673;28;20621;-69
2023/12/10 12:26:59;;;;;;;17.57;4.27;;;;;;;;;;4986475;28;20406;-69
2023/12/10 12:29:24;;;;;;;16.80;3.27;;;;;;;;;;4985334;28;20395;-69
2023/12/10 12:31:50;;;;;;;16.23;3.05;;;;;;;;;;4982801;28;20442;-68
2023/12/10 12:34:15;;;;;;;17.77;3.53;;;;;;;;;;4984835;28;20453;-68
2023/12/10 12:36:41;;;;;;;17.17;3.67;;;;;;;;;;4985051;28;20405;-69
2023/12/10 12:39:06;;;;;;;19.13;3.60;;;;;;;;;;4984199;28;20410;-68
2023/12/10 12:41:32;;;;;;;19.25;3.10;;;;;;;;;;4989851;28;20400;-68
2023/12/10 12:43:57;;;;;;;15.80;3.10;;;;;;;;;;4998574;28;20958;-69
2023/12/10 12:46:22;;;;;;;14.48;3.10;;;;;;;;;;4984252;28;20456;-68
2023/12/10 12:48:48;;;;;;;17.80;3.23;;;;;;;;;;4979215;28;20402;-69
2023/12/10 12:51:14;;;;;;;18.20;4.50;;;;;;;;;;4984574;28;20538;-68
2023/12/10 12:53:39;;;;;;;19.47;4.70;;;;;;;;;;4983867;28;20398;-68
2023/12/10 12:56:04;;;;;;;15.57;3.45;;;;;;;;;;4979827;28;21007;-68
2023/12/10 12:58:30;;;;;;;16.00;4.00;;;;;;;;;;4983481;28;20481;-68
2023/12/10 13:00:56;;;;;;;16.95;3.17;;;;;;;;;;4983882;28;20477;-69
2023/12/10 13:03:21;;;;;;;17.27;3.23;;;;;;;;;;4984483;28;20806;-68
2023/12/10 13:05:47;;;;;;;14.13;3.10;;;;;;;;;;5004581;28;20408;-68
2023/12/10 13:08:13;;;;;;;16.23;3.23;;;;;;;;;;5006921;28;20409;-68
2023/12/10 13:10:38;;;;;;;16.10;3.30;;;;;;;;;;5007426;28;20904;-69
2023/12/10 13:13:03;;;;;;;17.10;3.37;;;;;;;;;;5006654;28;20425;-67
2023/12/10 13:15:29;;;;;;;17.47;3.23;;;;;;;;;;5007466;28;20769;-68
2023/12/10 13:17:54;;;;;;;17.03;3.60;;;;;;;;;;5007815;28;20760;-68
2023/12/10 13:20:20;;;;;;;18.50;3.77;;;;;;;;;;5005791;28;20410;-68
2023/12/10 13:22:45;;;;;;;16.83;3.33;;;;;;;;;;4992232;28;20403;-68
2023/12/10 13:25:11;;;;;;;16.37;3.87;;;;;;;;;;4986858;28;20426;-68
2023/12/10 13:27:36;;;;;;;21.77;4.90;;;;;;;;;;4987526;28;20916;-70
2023/12/10 13:30:02;;;;;;;23.60;6.17;;;;;;;;;;4988145;28;20425;-67
2023/12/10 13:32:27;;;;;;;18.17;4.57;;;;;;;;;;4988000;28;20414;-68
2023/12/10 13:34:53;;;;;;;17.40;3.78;;;;;;;;;;4988892;28;20414;-68
2023/12/10 13:37:18;;;;;;;20.60;3.70;;;;;;;;;;4988206;28;20405;-68
2023/12/10 13:39:43;;;;;;;16.67;3.40;;;;;;;;;;5003043;28;20461;-68
2023/12/10 13:42:09;;;;;;;20.43;4.10;;;;;;;;;;4993800;28;20444;-68
2023/12/10 13:44:34;;;;;;;18.67;3.70;;;;;;;;;;4988377;28;20840;-69
2023/12/10 13:46:59;;;;;;;22.90;4.67;;;;;;;;;;4987982;28;20398;-68
2023/12/10 13:49:25;;;;;;;17.07;3.70;;;;;;;;;;4982572;28;20438;-68
2023/12/10 13:51:50;;;;;;;20.03;3.93;;;;;;;;;;4987834;28;20410;-68
2023/12/10 13:54:16;;;;;;;20.27;4.27;;;;;;;;;;4987393;28;20904;-68
2023/12/10 13:56:41;;;;;;;16.85;3.70;;;;;;;;;;4987155;28;20414;-68
2023/12/10 13:59:06;;;;;;;23.00;3.97;;;;;;;;;;4987466;28;20398;-68
2023/12/10 14:01:32;;;;;;;16.60;3.53;;;;;;;;;;4988353;28;20421;-68
2023/12/10 14:03:57;;;;;;;18.73;4.38;;;;;;;;;;4987082;28;20680;-68
2023/12/10 14:06:22;;;;;;;21.67;4.03;;;;;;;;;;4987675;28;20402;-68
2023/12/10 14:08:48;;;;;;;19.27;4.13;;;;;;;;;;4985753;28;20414;-68
2023/12/10 14:11:13;;;;;;;18.88;3.65;;;;;;;;;;4986710;28;20444;-70
2023/12/10 14:13:39;;;;;;;18.77;4.20;;;;;;;;;;4987583;28;20425;-68
2023/12/10 14:16:04;;;;;;;21.97;4.30;;;;;;;;;;4986216;28;20407;-69
2023/12/10 14:18:30;;;;;;;21.03;4.40;;;;;;;;;;4987177;28;20751;-68
2023/12/10 14:20:55;;;;;;;19.58;4.22;;;;;;;;;;4987959;28;20399;-69